Time;durP1;ratioP1;P1;durP2;ratioP2;P2;SDS_P1;SDS_P2;PMS_P1;PMS_P2;Temp;Humidity;BMP_temperature;BMP_pressure;BME280_temperature;BME280_humidity;BME280_pressure;Samples;Min_cycle;Max_cycle;Signal;HPM_P1;HPM_P2
2023/03/20 00:01:25;;;;;;;4.35;3.90;;;20.50;68.70;;;;;;4778103;29;92506;-89
2023/03/20 00:03:51;;;;;;;3.97;3.58;;;20.50;68.80;;;;;;4790194;29;94924;-90
2023/03/20 00:06:22;;;;;;;4.43;3.92;;;20.50;68.70;;;;;;4791449;29;96009;-90
2023/03/20 00:08:49;;;;;;;3.92;3.40;;;20.50;68.60;;;;;;4785030;29;91992;-90
2023/03/20 00:18:23;;;;;;;3.78;3.35;;;20.40;68.70;;;;;;4793105;29;92071;-90
2023/03/20 00:20:50;;;;;;;5.15;3.90;;;20.40;68.80;;;;;;4776761;29;92289;-90
2023/03/20 00:23:16;;;;;;;6.53;4.03;;;20.40;68.30;;;;;;4764637;29;91264;-90
2023/03/20 00:25:43;;;;;;;3.88;3.40;;;20.40;68.20;;;;;;4782866;29;94924;-88
2023/03/20 00:28:38;;;;;;;5.07;3.40;;;20.40;68.20;;;;;;4783368;29;94738;-91
2023/03/20 00:31:04;;;;;;;4.18;3.78;;;20.30;68.30;;;;;;4704831;29;93687;-90
2023/03/20 00:33:30;;;;;;;5.03;3.80;;;20.30;68.30;;;;;;4712257;29;92155;-90
2023/03/20 00:35:57;;;;;;;4.55;3.72;;;20.30;68.40;;;;;;4712349;29;96587;-89
2023/03/20 00:38:24;;;;;;;5.28;3.45;;;20.30;68.30;;;;;;4712243;29;96042;-89
2023/03/20 00:44:47;;;;;;;4.47;3.53;;;20.20;68.30;;;;;;4719701;29;92651;-90
2023/03/20 00:47:20;;;;;;;3.75;3.45;;;20.20;68.20;;;;;;4712094;29;96370;-89
2023/03/20 00:49:49;;;;;;;4.50;3.85;;;20.20;68.30;;;;;;4712570;29;96367;-90
2023/03/20 00:52:17;;;;;;;3.97;3.42;;;20.20;68.10;;;;;;4685175;30;92808;-91
2023/03/20 01:01:26;;;;;;;5.65;3.42;;;20.20;68.10;;;;;;4691938;30;97290;-90
2023/03/20 01:03:54;;;;;;;4.60;3.58;;;20.20;68.10;;;;;;4678374;30;92293;-89
2023/03/20 01:06:20;;;;;;;5.00;3.80;;;20.10;68.30;;;;;;4681334;30;92034;-90
2023/03/20 01:08:47;;;;;;;4.63;3.38;;;20.10;68.20;;;;;;4728788;29;96575;-91
2023/03/20 01:11:15;;;;;;;5.05;3.42;;;20.10;68.10;;;;;;4751676;29;96560;-90
2023/03/20 01:13:41;;;;;;;3.53;3.22;;;20.10;68.20;;;;;;4760400;29;92988;-90
2023/03/20 01:16:22;;;;;;;4.40;3.72;;;20.10;68.10;;;;;;4754156;29;92460;-90
2023/03/20 01:18:48;;;;;;;4.90;3.55;;;20.10;67.90;;;;;;4767330;29;96393;-90
2023/03/20 01:21:14;;;;;;;4.72;3.15;;;20.10;68.20;;;;;;4752181;29;95869;-89
2023/03/20 01:23:40;;;;;;;4.38;3.25;;;20.10;68.10;;;;;;4768927;29;93149;-89
2023/03/20 01:26:31;;;;;;;3.72;3.28;;;20.00;68.00;;;;;;4783783;29;92625;-90
2023/03/20 01:28:57;;;;;;;4.32;3.30;;;20.00;68.00;;;;;;4767618;29;97523;-90
2023/03/20 01:31:23;;;;;;;3.80;3.13;;;20.00;68.00;;;;;;4770032;29;93583;-89
2023/03/20 01:33:49;;;;;;;4.47;3.08;;;20.00;68.90;;;;;;4768377;29;92623;-90
2023/03/20 01:36:20;;;;;;;3.78;3.47;;;20.00;68.00;;;;;;4776969;29;91941;-90
2023/03/20 01:38:50;;;;;;;4.57;3.53;;;20.00;68.20;;;;;;4783200;29;96196;-89
2023/03/20 01:41:16;;;;;;;4.22;3.67;;;20.00;67.90;;;;;;4780794;29;95345;-89
2023/03/20 01:43:44;;;;;;;3.97;3.30;;;19.90;67.80;;;;;;4786430;29;92421;-89
2023/03/20 01:46:22;;;;;;;4.03;3.53;;;20.00;67.90;;;;;;4787692;29;92542;-89
2023/03/20 01:59:01;;;;;;;3.70;3.30;;;19.90;68.60;;;;;;4788523;29;92610;-90
2023/03/20 02:01:27;;;;;;;3.70;3.30;;;19.90;67.90;;;;;;4802108;29;95863;-89
2023/03/20 02:03:54;;;;;;;3.35;2.90;;;19.90;67.80;;;;;;4769680;29;96400;-90
2023/03/20 02:06:22;;;;;;;3.85;3.45;;;19.90;67.70;;;;;;4768402;29;92768;-90
2023/03/20 02:08:50;;;;;;;4.63;4.05;;;19.90;67.70;;;;;;4773659;29;91372;-89
2023/03/20 02:11:19;;;;;;;3.88;3.15;;;19.90;67.70;;;;;;4800034;29;95776;-89
2023/03/20 02:13:46;;;;;;;5.63;4.05;;;19.90;67.40;;;;;;4785958;29;96079;-89
2023/03/20 02:16:12;;;;;;;6.63;3.42;;;19.80;67.50;;;;;;4785308;29;93270;-90
2023/03/20 02:18:58;;;;;;;3.83;3.50;;;19.90;67.60;;;;;;4793678;29;92517;-89
2023/03/20 02:21:42;;;;;;;3.88;3.28;;;19.80;67.40;;;;;;4799812;29;96548;-89
2023/03/20 02:24:37;;;;;;;3.33;3.03;;;19.80;67.40;;;;;;4771495;29;96106;-90
2023/03/20 02:27:22;;;;;;;3.80;3.45;;;19.80;67.60;;;;;;4763525;29;92524;-90
2023/03/20 02:29:52;;;;;;;3.28;2.83;;;19.80;67.50;;;;;;4763747;29;92152;-90
2023/03/20 02:33:05;;;;;;;3.40;3.10;;;19.80;67.40;;;;;;4755795;29;95485;-91
2023/03/20 02:39:00;;;;;;;3.20;2.90;;;19.80;67.30;;;;;;4766018;29;92643;-90
2023/03/20 02:41:45;;;;;;;3.50;3.13;;;19.80;67.40;;;;;;4759387;29;92583;-90
2023/03/20 02:44:22;;;;;;;3.38;3.08;;;19.80;67.40;;;;;;4764977;29;97909;-90
2023/03/20 02:47:25;;;;;;;3.10;2.80;;;19.80;67.50;;;;;;4764991;29;96076;-90
2023/03/20 02:50:07;;;;;;;3.40;3.10;;;19.80;67.30;;;;;;4750664;29;92638;-91
2023/03/20 02:52:39;;;;;;;3.90;3.50;;;19.70;67.10;;;;;;4751857;29;92295;-89
2023/03/20 02:55:31;;;;;;;3.90;3.50;;;19.70;67.20;;;;;;4751245;29;96499;-90
2023/03/20 03:05:08;;;;;;;4.07;3.03;;;19.70;67.30;;;;;;4766226;29;91789;-90
2023/03/20 03:07:35;;;;;;;3.65;3.15;;;19.70;67.20;;;;;;4751428;29;95661;-90
2023/03/20 03:10:33;;;;;;;5.80;3.83;;;19.70;67.10;;;;;;4765220;29;96475;-90
2023/03/20 03:13:01;;;;;;;4.47;3.70;;;19.70;67.10;;;;;;4732168;29;93815;-90
2023/03/20 03:15:26;;;;;;;3.55;3.25;;;19.70;67.10;;;;;;4732866;29;92374;-90
2023/03/20 03:17:53;;;;;;;4.13;3.17;;;19.70;67.20;;;;;;4758820;29;96170;-90
2023/03/20 03:20:31;;;;;;;3.38;2.80;;;19.60;67.10;;;;;;4759796;29;96134;-89
2023/03/20 03:22:57;;;;;;;2.80;2.60;;;19.70;67.10;;;;;;4728828;29;92722;-91
2023/03/20 03:25:27;;;;;;;3.30;3.00;;;19.60;67.10;;;;;;4714960;29;92532;-90
2023/03/20 03:28:21;;;;;;;2.65;2.45;;;19.60;67.10;;;;;;4714447;29;96840;-91
2023/03/20 03:30:50;;;;;;;3.97;3.22;;;19.60;67.20;;;;;;4729626;29;96289;-91
2023/03/20 03:37:05;;;;;;;3.75;3.10;;;19.60;67.00;;;;;;4721920;29;92648;-91
2023/03/20 03:39:45;;;;;;;3.08;2.78;;;19.60;67.00;;;;;;4728508;29;96385;-90
2023/03/20 03:42:24;;;;;;;3.70;3.33;;;19.60;66.90;;;;;;4719443;29;96376;-91
2023/03/20 03:45:04;;;;;;;4.63;3.28;;;19.60;66.90;;;;;;4714622;29;92389;-91
2023/03/20 03:47:58;;;;;;;3.90;3.42;;;19.60;67.00;;;;;;4714279;29;92613;-92
2023/03/20 03:50:30;;;;;;;3.10;2.90;;;19.60;67.10;;;;;;4721704;29;95473;-90
2023/03/20 03:53:01;;;;;;;5.50;3.30;;;19.60;66.90;;;;;;4725096;29;96276;-90
2023/03/20 03:55:33;;;;;;;3.30;3.00;;;19.50;66.90;;;;;;4800801;29;92163;-90
2023/03/20 03:58:17;;;;;;;3.38;2.95;;;19.50;67.00;;;;;;4786393;29;92105;-90
2023/03/20 04:00:46;;;;;;;3.95;3.13;;;19.50;66.90;;;;;;4782088;29;97074;-90
2023/03/20 04:03:21;;;;;;;4.03;3.08;;;19.50;66.70;;;;;;4789431;29;95421;-90
2023/03/20 04:05:49;;;;;;;3.47;3.10;;;19.50;66.40;;;;;;4780614;29;93542;-90
2023/03/20 04:08:15;;;;;;;3.08;2.78;;;19.50;66.80;;;;;;4766267;29;92217;-90
2023/03/20 04:10:41;;;;;;;3.83;3.38;;;19.50;66.80;;;;;;4781635;29;97372;-91
2023/03/20 04:13:07;;;;;;;4.30;2.83;;;19.50;66.60;;;;;;4758959;29;95740;-91
2023/03/20 04:15:32;;;;;;;3.25;2.95;;;19.50;66.70;;;;;;4766548;29;92036;-90
2023/03/20 04:21:39;;;;;;;5.57;3.85;;;19.50;66.90;;;;;;4767359;29;92547;-90
2023/03/20 04:24:05;;;;;;;3.28;2.97;;;19.50;66.60;;;;;;4759305;29;95495;-90
2023/03/20 04:26:31;;;;;;;3.20;2.90;;;19.50;66.70;;;;;;4774264;29;92446;-90
2023/03/20 04:28:56;;;;;;;3.05;2.85;;;19.50;66.60;;;;;;4765689;29;91949;-90
2023/03/20 04:31:22;;;;;;;3.40;3.10;;;19.50;66.40;;;;;;4765869;29;96991;-91
2023/03/20 04:37:10;;;;;;;2.92;2.63;;;19.40;66.50;;;;;;4766580;29;92459;-90
2023/03/20 04:39:36;;;;;;;3.38;2.80;;;19.50;66.60;;;;;;4787502;29;92666;-90
2023/03/20 04:42:03;;;;;;;3.80;2.85;;;19.40;66.50;;;;;;4773590;29;95954;-90
2023/03/20 04:44:29;;;;;;;3.22;2.92;;;19.40;66.60;;;;;;4780822;29;94828;-90
2023/03/20 04:47:13;;;;;;;3.50;2.80;;;19.40;66.60;;;;;;4766317;29;92526;-91
2023/03/20 04:49:39;;;;;;;2.80;2.60;;;19.40;66.30;;;;;;4766857;29;91877;-91
2023/03/20 04:52:05;;;;;;;2.97;2.70;;;19.40;66.40;;;;;;4765648;29;95085;-91
2023/03/20 04:54:30;;;;;;;3.45;3.13;;;19.40;66.50;;;;;;4772931;29;96779;-91
2023/03/20 04:56:56;;;;;;;3.70;3.40;;;19.40;66.50;;;;;;4765442;29;93037;-91
2023/03/20 04:59:22;;;;;;;3.40;3.10;;;19.40;66.50;;;;;;4765292;29;92522;-91
2023/03/20 05:01:47;;;;;;;2.78;2.58;;;19.40;66.40;;;;;;4781287;29;95493;-90
2023/03/20 05:04:13;;;;;;;3.70;2.80;;;19.40;66.40;;;;;;4781509;29;95202;-91
2023/03/20 05:06:39;;;;;;;3.30;2.97;;;19.40;66.40;;;;;;4781518;29;92438;-91
2023/03/20 05:09:05;;;;;;;3.20;2.90;;;19.30;66.50;;;;;;4792035;29;92248;-91
2023/03/20 05:11:30;;;;;;;2.47;2.25;;;19.30;66.30;;;;;;4785112;29;96381;-92
2023/03/20 05:13:56;;;;;;;3.33;3.03;;;19.30;66.40;;;;;;4799326;29;95028;-91
2023/03/20 05:16:22;;;;;;;3.40;3.00;;;19.40;66.40;;;;;;4783837;29;92433;-92
2023/03/20 05:18:54;;;;;;;3.22;2.92;;;19.30;66.40;;;;;;4783038;29;92297;-91
2023/03/20 05:21:20;;;;;;;3.33;3.00;;;19.30;66.50;;;;;;4754429;29;96295;-91
2023/03/20 05:23:46;;;;;;;3.75;3.05;;;19.30;66.50;;;;;;4730988;29;95955;-90
2023/03/20 05:26:11;;;;;;;3.67;2.95;;;19.30;66.50;;;;;;4739190;29;92059;-91
2023/03/20 05:28:46;;;;;;;3.10;2.80;;;19.30;66.40;;;;;;4749311;29;92728;-90
2023/03/20 05:31:11;;;;;;;3.83;3.08;;;19.30;66.30;;;;;;4741438;29;99001;-90
2023/03/20 05:33:37;;;;;;;2.88;2.67;;;19.30;66.30;;;;;;4740243;29;96558;-91
2023/03/20 05:36:04;;;;;;;2.75;2.55;;;19.30;66.50;;;;;;4721967;29;92200;-90
2023/03/20 05:38:30;;;;;;;3.35;3.05;;;19.30;66.50;;;;;;4736136;29;91875;-90
2023/03/20 05:40:59;;;;;;;2.80;2.53;;;19.30;66.50;;;;;;4746874;29;95325;-90
2023/03/20 05:50:10;;;;;;;3.30;2.60;;;19.20;66.40;;;;;;4754218;29;92258;-91
2023/03/20 05:52:36;;;;;;;2.60;2.40;;;19.20;66.50;;;;;;4760711;29;96229;-90
2023/03/20 05:55:02;;;;;;;3.15;2.85;;;19.20;66.30;;;;;;4768043;29;96381;-89
2023/03/20 05:57:27;;;;;;;2.88;2.60;;;19.20;66.50;;;;;;4768706;29;92439;-91
2023/03/20 05:59:53;;;;;;;3.38;2.90;;;19.20;66.60;;;;;;4768294;29;92181;-90
2023/03/20 06:02:19;;;;;;;2.83;2.50;;;19.20;66.50;;;;;;4772841;29;96215;-90
2023/03/20 06:04:45;;;;;;;3.10;2.80;;;19.20;66.50;;;;;;4786528;29;96154;-91
2023/03/20 06:07:11;;;;;;;3.33;3.03;;;19.20;66.50;;;;;;4787339;29;92222;-91
2023/03/20 06:30:10;;;;;;;3.00;2.70;;;19.20;66.20;;;;;;4778335;29;95730;-90
2023/03/20 06:32:36;;;;;;;3.60;3.13;;;19.20;66.40;;;;;;4783010;29;96431;-92
2023/03/20 06:35:03;;;;;;;4.25;2.63;;;19.10;66.20;;;;;;4768082;29;92125;-92
2023/03/20 06:37:50;;;;;;;3.13;2.80;;;19.10;66.00;;;;;;4769326;29;91305;-91
2023/03/20 06:40:16;;;;;;;4.53;2.53;;;19.10;66.30;;;;;;4767722;29;100296;-93
2023/03/20 06:42:41;;;;;;;3.58;2.83;;;19.30;66.10;;;;;;4767888;29;95017;-92
2023/03/20 06:45:07;;;;;;;3.30;3.00;;;19.30;65.40;;;;;;4766066;29;93267;-91
2023/03/20 06:47:33;;;;;;;4.00;3.20;;;19.30;65.70;;;;;;4751692;29;92550;-94
2023/03/20 06:49:59;;;;;;;3.58;2.75;;;19.40;65.20;;;;;;4758463;29;96358;-91
2023/03/20 06:52:25;;;;;;;4.30;2.95;;;19.50;64.70;;;;;;4756200;29;94849;-95
2023/03/20 06:54:51;;;;;;;3.78;2.95;;;19.60;64.40;;;;;;4748013;29;92086;-90
2023/03/20 06:57:17;;;;;;;6.85;3.33;;;19.70;64.20;;;;;;4733316;29;92485;-91
2023/03/20 06:59:42;;;;;;;7.85;3.72;;;19.80;64.20;;;;;;4734830;29;96471;-90
2023/03/20 07:02:10;;;;;;;10.27;3.95;;;20.00;64.10;;;;;;4735077;29;96523;-96
2023/03/20 07:04:36;;;;;;;8.10;4.00;;;20.10;64.20;;;;;;4735928;29;92218;-94
2023/03/20 07:07:02;;;;;;;9.55;3.85;;;20.10;64.20;;;;;;4716613;29;92099;-92
2023/03/20 07:09:27;;;;;;;7.70;4.07;;;20.20;64.10;;;;;;4729836;29;96332;-92
2023/03/20 07:11:53;;;;;;;9.18;3.92;;;20.20;64.10;;;;;;4733382;29;97410;-92
2023/03/20 07:31:28;;;;;;;7.07;3.65;;;20.20;65.10;;;;;;4782342;29;92069;-91
2023/03/20 07:33:54;;;;;;;5.82;3.78;;;20.10;65.20;;;;;;4787694;29;94971;-91
2023/03/20 07:36:20;;;;;;;7.00;3.53;;;20.00;65.30;;;;;;4776847;29;95208;-91
2023/03/20 07:38:46;;;;;;;6.28;3.95;;;20.00;65.50;;;;;;4776884;29;93504;-92
2023/03/20 07:41:12;;;;;;;5.40;3.70;;;20.00;65.80;;;;;;4789800;29;92473;-92
2023/03/20 07:43:38;;;;;;;7.88;4.22;;;19.90;66.00;;;;;;4765788;29;93940;-91
2023/03/20 07:46:06;;;;;;;6.38;3.53;;;19.90;67.00;;;;;;4766230;29;95078;-92
2023/03/20 07:48:31;;;;;;;7.78;3.42;;;19.90;66.30;;;;;;4759381;29;92102;-93
2023/03/20 07:50:57;;;;;;;6.68;3.17;;;19.90;66.30;;;;;;4751752;29;92515;-92
2023/03/20 07:53:23;;;;;;;7.55;3.40;;;19.90;66.60;;;;;;4750884;29;95325;-94
2023/03/20 07:55:48;;;;;;;7.38;3.75;;;19.90;66.40;;;;;;4751325;29;96317;-92
2023/03/20 08:01:36;;;;;;;7.53;3.30;;;19.90;66.00;;;;;;4765979;29;92407;-91
2023/03/20 08:04:01;;;;;;;40.22;12.40;;;19.90;65.00;;;;;;4749627;29;97244;-91
2023/03/20 08:06:27;;;;;;;60.75;16.02;;;19.80;64.30;;;;;;4736610;29;96247;-91
2023/03/20 08:08:53;;;;;;;44.20;13.80;;;19.80;64.30;;;;;;4732702;29;92000;-92
2023/03/20 08:11:19;;;;;;;21.00;6.50;;;19.80;65.40;;;;;;4731365;29;92718;-90
2023/03/20 08:17:07;;;;;;;22.75;7.70;;;19.90;66.00;;;;;;4764670;29;92482;-91
2023/03/20 08:19:33;;;;;;;23.40;8.48;;;19.90;66.90;;;;;;4750480;29;92544;-89
2023/03/20 08:21:59;;;;;;;24.67;8.02;;;19.80;66.80;;;;;;4766500;29;91436;-89
2023/03/20 08:24:27;;;;;;;26.20;8.60;;;19.80;66.80;;;;;;4797681;29;93900;-89
2023/03/20 08:27:00;;;;;;;22.02;8.57;;;19.80;66.80;;;;;;4793416;29;93985;-90
2023/03/20 08:29:26;;;;;;;29.83;8.48;;;19.90;66.60;;;;;;4779365;29;93346;-90
2023/03/20 08:31:51;;;;;;;29.88;8.27;;;19.80;67.30;;;;;;4786421;29;92651;-90
2023/03/20 08:34:17;;;;;;;28.30;9.63;;;19.90;67.10;;;;;;4795128;29;96550;-89
2023/03/20 08:36:43;;;;;;;29.40;9.35;;;19.80;67.10;;;;;;4778498;29;96906;-88
2023/03/20 08:39:09;;;;;;;21.88;8.10;;;19.80;67.40;;;;;;4803674;29;92001;-91
2023/03/20 08:41:38;;;;;;;22.50;9.05;;;19.80;67.70;;;;;;4778876;29;92438;-91
2023/03/20 08:44:05;;;;;;;23.67;8.88;;;19.90;68.00;;;;;;4799473;29;96317;-90
2023/03/20 08:46:31;;;;;;;29.63;8.70;;;19.80;68.40;;;;;;4806139;29;95938;-93
2023/03/20 08:48:57;;;;;;;21.50;8.38;;;19.90;68.10;;;;;;4771219;29;92094;-94
2023/03/20 08:58:07;;;;;;;24.83;8.63;;;20.00;66.40;;;;;;4802703;29;97455;-94
2023/03/20 09:00:33;;;;;;;19.75;8.23;;;19.90;67.00;;;;;;4782544;29;92690;-91
2023/03/20 09:02:58;;;;;;;19.88;7.97;;;20.00;67.30;;;;;;4768192;29;92447;-93
2023/03/20 09:05:24;;;;;;;25.17;7.65;;;19.90;67.40;;;;;;4768167;29;95722;-93
2023/03/20 09:07:50;;;;;;;17.75;7.72;;;20.00;66.50;;;;;;4768767;29;96210;-91
2023/03/20 09:10:16;;;;;;;22.33;7.93;;;20.00;65.50;;;;;;4774947;29;92161;-92
2023/03/20 09:12:42;;;;;;;25.88;7.68;;;20.00;66.20;;;;;;4772756;29;91861;-92
2023/03/20 09:15:08;;;;;;;19.80;8.18;;;20.00;66.50;;;;;;4768569;29;95922;-95
2023/03/20 09:20:55;;;;;;;20.00;7.70;;;20.10;67.20;;;;;;4780650;29;93588;-92
2023/03/20 09:23:21;;;;;;;24.42;7.80;;;20.10;66.60;;;;;;4766688;29;92741;-91
2023/03/20 09:25:47;;;;;;;23.70;8.45;;;20.10;65.40;;;;;;4768607;29;97710;-94
2023/03/20 09:28:13;;;;;;;18.70;7.80;;;20.10;66.40;;;;;;4771566;29;95986;-90
2023/03/20 09:30:39;;;;;;;19.30;7.10;;;20.00;66.70;;;;;;4773631;29;92047;-92
2023/03/20 09:33:05;;;;;;;19.77;6.90;;;19.90;66.80;;;;;;4789277;29;92233;-93
2023/03/20 09:35:31;;;;;;;13.93;6.30;;;19.90;66.50;;;;;;4788829;29;96330;-92
2023/03/20 09:37:56;;;;;;;17.50;7.15;;;19.90;66.70;;;;;;4790027;29;95944;-93
2023/03/20 09:40:50;;;;;;;23.92;7.85;;;20.00;66.80;;;;;;4791023;29;92217;-92
2023/03/20 09:43:25;;;;;;;17.52;7.65;;;19.90;66.80;;;;;;4790170;29;93344;-92
2023/03/20 09:46:16;;;;;;;18.35;6.93;;;20.00;66.60;;;;;;4788573;29;96135;-91
2023/03/20 09:49:04;;;;;;;15.85;6.28;;;19.90;66.50;;;;;;4804900;29;96567;-92
2023/03/20 09:54:56;;;;;;;19.63;6.97;;;19.90;66.40;;;;;;4805787;29;92372;-93
2023/03/20 09:57:31;;;;;;;18.02;6.57;;;19.90;66.10;;;;;;4787855;29;96785;-91
2023/03/20 10:00:01;;;;;;;12.77;5.63;;;19.90;66.00;;;;;;4787797;29;94769;-93
2023/03/20 10:02:40;;;;;;;19.63;6.78;;;19.90;66.10;;;;;;4788549;29;92944;-93
2023/03/20 10:05:18;;;;;;;14.95;6.40;;;19.90;66.30;;;;;;4788526;29;91413;-92
2023/03/20 10:08:05;;;;;;;14.73;6.97;;;19.80;66.10;;;;;;4785382;29;96281;-93
2023/03/20 10:10:43;;;;;;;13.25;6.70;;;19.90;66.30;;;;;;4788873;29;96115;-93
2023/03/20 10:13:36;;;;;;;13.23;6.03;;;19.80;66.00;;;;;;4789931;29;92930;-92
2023/03/20 10:16:21;;;;;;;14.68;6.25;;;19.80;66.00;;;;;;4793711;29;92779;-93
2023/03/20 10:18:56;;;;;;;12.43;5.97;;;19.80;66.00;;;;;;4804415;29;95221;-92
2023/03/20 10:21:31;;;;;;;15.13;6.05;;;19.80;65.70;;;;;;4795569;29;95148;-92
2023/03/20 10:24:07;;;;;;;16.58;6.72;;;19.80;65.80;;;;;;4789192;29;92605;-93
2023/03/20 10:26:35;;;;;;;14.90;6.30;;;19.90;65.90;;;;;;4804167;29;92715;-92
2023/03/20 10:29:22;;;;;;;12.40;5.22;;;19.90;65.90;;;;;;4803482;29;96139;-91
2023/03/20 10:32:06;;;;;;;13.88;5.85;;;19.80;66.10;;;;;;4786426;29;96484;-93
2023/03/20 10:34:40;;;;;;;14.93;5.88;;;19.80;66.10;;;;;;4801384;29;92141;-92
2023/03/20 10:37:28;;;;;;;13.13;6.18;;;19.80;66.00;;;;;;4800128;29;92391;-92
2023/03/20 10:40:16;;;;;;;11.70;5.40;;;19.90;66.10;;;;;;4801877;29;94368;-92
2023/03/20 10:42:46;;;;;;;14.30;6.15;;;19.90;65.80;;;;;;4787506;29;96023;-93
2023/03/20 10:45:15;;;;;;;14.15;5.70;;;20.00;65.70;;;;;;4780442;29;92012;-92
2023/03/20 10:47:43;;;;;;;12.13;5.60;;;20.00;65.70;;;;;;4802955;29;92465;-90
2023/03/20 10:50:22;;;;;;;14.40;5.67;;;20.10;65.60;;;;;;4787054;29;95156;-93
2023/03/20 10:52:54;;;;;;;14.63;5.68;;;20.00;65.20;;;;;;4787421;29;96946;-91
2023/03/20 10:58:47;;;;;;;10.25;5.10;;;20.00;65.20;;;;;;4802911;29;91575;-92
2023/03/20 11:01:15;;;;;;;10.43;5.18;;;20.10;65.20;;;;;;4765860;29;95755;-93
2023/03/20 11:03:44;;;;;;;10.60;5.43;;;20.10;65.10;;;;;;4775188;29;95007;-93
2023/03/20 11:06:20;;;;;;;9.40;4.83;;;20.10;65.10;;;;;;4789773;29;93132;-92
2023/03/20 11:09:17;;;;;;;15.75;6.43;;;20.10;65.30;;;;;;4760625;29;92491;-93
2023/03/20 11:11:47;;;;;;;12.13;4.75;;;20.10;65.10;;;;;;4783433;29;96057;-93
2023/03/20 11:14:22;;;;;;;12.43;4.88;;;20.10;65.10;;;;;;4766650;29;96313;-93
2023/03/20 11:16:50;;;;;;;8.80;4.72;;;20.00;65.00;;;;;;4755955;29;92005;-93
2023/03/20 11:19:18;;;;;;;10.35;4.82;;;20.00;65.00;;;;;;4779889;29;92666;-85
2023/03/20 11:21:50;;;;;;;13.82;5.40;;;20.10;64.70;;;;;;4764275;29;93480;-85
2023/03/20 11:24:25;;;;;;;11.73;5.00;;;20.10;63.90;;;;;;4764759;29;92743;-85
2023/03/20 11:26:51;;;;;;;10.32;4.63;;;20.10;63.20;;;;;;4764886;29;92358;-85
2023/03/20 11:29:33;;;;;;;12.43;5.18;;;20.10;63.30;;;;;;4748078;29;92411;-83
2023/03/20 11:32:27;;;;;;;13.20;5.28;;;20.10;63.10;;;;;;4761122;29;94567;-83
2023/03/20 11:34:57;;;;;;;18.85;7.45;;;20.20;63.30;;;;;;4781422;29;95636;-81
2023/03/20 11:37:24;;;;;;;26.58;9.02;;;20.30;63.30;;;;;;4783290;29;92393;-84
2023/03/20 11:40:19;;;;;;;22.20;8.63;;;20.50;63.60;;;;;;4782852;29;92098;-83
2023/03/20 11:43:00;;;;;;;24.10;8.15;;;20.60;63.50;;;;;;4709952;29;94082;-85
2023/03/20 11:45:36;;;;;;;20.33;8.00;;;20.70;63.30;;;;;;4710785;29;92860;-83
2023/03/20 11:48:20;;;;;;;20.42;8.60;;;20.80;63.10;;;;;;4720522;29;92158;-84
2023/03/20 11:51:03;;;;;;;18.15;8.38;;;20.80;63.30;;;;;;4729069;29;91844;-83
2023/03/20 11:53:37;;;;;;;22.45;7.10;;;20.80;63.20;;;;;;4729314;29;93271;-93
2023/03/20 11:56:05;;;;;;;19.65;6.85;;;20.80;60.50;;;;;;4729860;29;93876;-90
2023/03/20 12:02:21;;;;;;;16.05;6.40;;;20.90;60.20;;;;;;4729448;29;92704;-91
2023/03/20 12:04:47;;;;;;;19.80;6.78;;;21.00;60.80;;;;;;4729711;29;96194;-92
2023/03/20 12:07:18;;;;;;;21.55;7.07;;;20.90;61.60;;;;;;4714975;29;97103;-91
2023/03/20 12:09:55;;;;;;;17.17;6.82;;;20.80;61.60;;;;;;4722966;29;92201;-92
2023/03/20 12:12:44;;;;;;;21.17;7.40;;;20.80;61.90;;;;;;4706881;29;92727;-90
2023/03/20 12:15:35;;;;;;;20.02;7.18;;;20.70;62.40;;;;;;4720402;29;95596;-92
2023/03/20 12:18:24;;;;;;;15.75;6.80;;;20.70;61.20;;;;;;4714341;29;95311;-93
2023/03/20 12:21:06;;;;;;;17.17;7.43;;;20.60;61.70;;;;;;4785695;29;92692;-93
2023/03/20 12:23:32;;;;;;;19.20;6.40;;;20.60;62.30;;;;;;4784909;29;92098;-93
2023/03/20 12:26:06;;;;;;;18.92;6.40;;;20.50;61.90;;;;;;4763847;29;96539;-93
2023/03/20 12:28:43;;;;;;;17.13;6.65;;;20.50;61.40;;;;;;4750733;29;97918;-93
2023/03/20 12:31:49;;;;;;;15.85;5.78;;;20.50;61.50;;;;;;4767267;29;92067;-93
2023/03/20 12:34:26;;;;;;;20.80;7.13;;;20.50;61.40;;;;;;4695260;29;93479;-96
2023/03/20 12:36:56;;;;;;;15.68;6.25;;;20.50;61.70;;;;;;4681887;30;95547;-93
2023/03/20 12:39:27;;;;;;;25.50;7.03;;;20.50;62.30;;;;;;4696714;29;95368;-90
2023/03/20 12:42:05;;;;;;;18.80;6.47;;;20.50;62.40;;;;;;4697172;29;92725;-95
2023/03/20 12:44:46;;;;;;;15.65;6.47;;;20.60;61.80;;;;;;4686683;30;91917;-92
2023/03/20 12:47:24;;;;;;;17.33;6.25;;;20.60;61.60;;;;;;4683781;30;93348;-93
2023/03/20 12:50:01;;;;;;;17.23;6.30;;;20.60;62.00;;;;;;4683685;30;95042;-95
2023/03/20 12:52:50;;;;;;;15.45;5.60;;;20.60;61.30;;;;;;4684076;30;93062;-94
2023/03/20 12:55:39;;;;;;;18.17;6.07;;;20.70;61.60;;;;;;4634837;30;93774;-92
2023/03/20 12:58:26;;;;;;;15.93;6.72;;;20.70;61.40;;;;;;4644308;30;97516;-92
2023/03/20 13:01:52;;;;;;;16.48;6.18;;;20.60;61.60;;;;;;4658923;30;95313;-92
2023/03/20 13:04:48;;;;;;;13.68;5.30;;;20.60;61.60;;;;;;4653650;30;93155;-87
2023/03/20 13:07:20;;;;;;;16.02;6.05;;;20.60;61.00;;;;;;4669146;29;92889;-91
2023/03/20 13:10:21;;;;;;;15.73;5.85;;;20.50;61.50;;;;;;4748510;29;94479;-90
2023/03/20 13:12:54;;;;;;;18.83;5.78;;;20.50;61.60;;;;;;4677023;30;96454;-90
2023/03/20 13:15:29;;;;;;;19.52;5.65;;;20.50;61.10;;;;;;4686924;30;92155;-92
2023/03/20 13:18:07;;;;;;;16.00;5.55;;;20.50;61.80;;;;;;4687214;30;92593;-89
2023/03/20 13:20:44;;;;;;;20.30;6.10;;;20.50;61.90;;;;;;4671899;30;97856;-89
2023/03/20 13:23:50;;;;;;;16.10;6.00;;;20.60;62.30;;;;;;4671432;30;97487;-88
2023/03/20 13:26:48;;;;;;;15.68;5.47;;;20.70;62.20;;;;;;4690121;30;92525;-88
2023/03/20 13:29:20;;;;;;;12.02;5.45;;;20.70;62.10;;;;;;4679738;30;92611;-87
2023/03/20 13:32:01;;;;;;;16.92;5.63;;;20.70;62.30;;;;;;4686962;30;93262;-88
2023/03/20 13:34:32;;;;;;;11.98;5.47;;;20.80;62.20;;;;;;4687747;29;96393;-88
2023/03/20 13:37:24;;;;;;;15.23;5.45;;;20.70;62.50;;;;;;4729564;29;92730;-88
2023/03/20 13:40:11;;;;;;;20.00;5.70;;;20.70;62.80;;;;;;4729487;29;91388;-88
2023/03/20 13:42:46;;;;;;;12.15;5.43;;;20.70;62.70;;;;;;4723254;29;96823;-90
2023/03/20 13:45:20;;;;;;;12.18;5.35;;;20.70;63.10;;;;;;4707064;29;95243;-89
2023/03/20 13:47:50;;;;;;;15.27;4.78;;;20.60;63.50;;;;;;4722583;29;93304;-88
2023/03/20 13:50:18;;;;;;;;;;;20.60;63.50;;;;;;4782020;29;92054;-89
2023/03/20 13:52:54;;;;;;;13.40;5.20;;;20.60;63.80;;;;;;4802353;29;95916;-89
2023/03/20 13:55:42;;;;;;;13.20;4.93;;;20.60;64.20;;;;;;4801919;29;97193;-89
2023/03/20 13:58:33;;;;;;;14.65;5.97;;;20.70;63.80;;;;;;4801165;29;92286;-90
2023/03/20 14:01:10;;;;;;;11.90;4.63;;;20.80;63.50;;;;;;4800621;29;92458;-88
2023/03/20 14:03:44;;;;;;;12.98;5.18;;;20.90;63.70;;;;;;4790879;29;97223;-90
2023/03/20 14:06:37;;;;;;;9.82;4.13;;;21.00;63.50;;;;;;4786760;29;95116;-91
2023/03/20 14:09:24;;;;;;;11.32;4.50;;;21.10;63.10;;;;;;4802083;29;92007;-91
2023/03/20 14:11:55;;;;;;;13.88;5.63;;;21.10;63.00;;;;;;4785394;29;93009;-91
2023/03/20 14:14:26;;;;;;;12.23;5.00;;;21.10;62.90;;;;;;4791643;29;96883;-89
2023/03/20 14:17:24;;;;;;;8.18;4.05;;;21.20;62.90;;;;;;4785541;29;97136;-90
2023/03/20 14:19:53;;;;;;;9.80;4.60;;;21.20;63.00;;;;;;4785697;29;92574;-93
2023/03/20 14:22:33;;;;;;;13.38;5.25;;;21.20;63.00;;;;;;4787002;29;91934;-93
2023/03/20 14:25:16;;;;;;;11.65;4.95;;;21.20;62.90;;;;;;4786372;29;96388;-93
2023/03/20 14:28:32;;;;;;;11.60;4.80;;;21.10;62.90;;;;;;4801194;29;96078;-92
2023/03/20 14:31:24;;;;;;;9.23;4.43;;;21.10;63.10;;;;;;4804232;29;92091;-92
2023/03/20 14:34:22;;;;;;;15.55;4.85;;;21.10;63.10;;;;;;4758227;29;92082;-90
2023/03/20 14:37:02;;;;;;;10.45;4.30;;;21.10;63.40;;;;;;4701905;29;96510;-92
2023/03/20 14:46:29;;;;;;;15.95;4.68;;;20.90;61.70;;;;;;4721095;29;92325;-93
2023/03/20 14:48:55;;;;;;;13.75;4.63;;;20.90;61.20;;;;;;4715319;29;95501;-93
2023/03/20 14:51:38;;;;;;;16.08;5.45;;;20.80;61.10;;;;;;4722721;29;96149;-92
2023/03/20 14:54:26;;;;;;;15.45;5.38;;;20.90;60.50;;;;;;4722289;29;92406;-96
2023/03/20 14:56:52;;;;;;;17.63;5.65;;;21.00;59.90;;;;;;4721394;29;92694;-91
2023/03/20 14:59:22;;;;;;;14.90;5.50;;;21.10;59.80;;;;;;4719594;29;95723;-90
2023/03/20 15:01:59;;;;;;;16.45;5.93;;;21.10;60.00;;;;;;4720197;29;95707;-90
2023/03/20 15:04:39;;;;;;;20.15;6.72;;;21.20;60.20;;;;;;4722193;29;92070;-92
2023/03/20 15:07:12;;;;;;;16.52;6.00;;;21.20;61.10;;;;;;4719916;29;92658;-91
2023/03/20 15:12:59;;;;;;;18.75;6.80;;;21.20;61.50;;;;;;4757865;29;92848;-89
2023/03/20 15:15:32;;;;;;;19.67;6.93;;;21.20;62.60;;;;;;4783259;29;92505;-90
2023/03/20 15:18:12;;;;;;;21.25;6.57;;;21.20;63.40;;;;;;4782501;29;92452;-90
2023/03/20 15:20:38;;;;;;;21.92;6.50;;;21.20;63.90;;;;;;4804688;29;95760;-93
2023/03/20 15:23:06;;;;;;;21.73;6.60;;;21.20;64.60;;;;;;4792171;29;94587;-92
2023/03/20 15:25:44;;;;;;;15.30;6.15;;;21.10;64.50;;;;;;4734164;29;91859;-92